KEYWKSPG

Guest
Details From KEYW - Key West Intl
To KSPG - Albert Whitted
Flight Number -
Tags decoded
Created
Modified
Stats Distance 215 nm / 398 km
Max Altitude 0 ft / 0 m
Waypoints 8
Social Downloads 2
Likes 0
Share VATSIM

Download

Looking for another format? Having issues loading an existing format? Contact us
Advertisement - Login to hide

Notes

Requested: KEYW FORRA RIGOR BAGGS BOOGI VPGPE BIGOO KSPG

Route

KEYW FORRA RIGOR BAGGS BOOGI VPGPE BIGOO KSPG

ID Type Via Altitude Latitude Longitude Leg Dist Tot Dist Heading (true) Name
O KEYW APT - 0 ft / 0 m 24.55612˚ -81.75955˚ - 0 nm - Key West Intl
FORRA FIX - 0 ft / 0 m 24.57488˚ -81.72469˚ 2 nm 2 nm 59° / 59° -
RIGOR FIX - 0 ft / 0 m 25.12269˚ -81.79287˚ 33 nm 35 nm 354° / 354° -
BAGGS FIX - 0 ft / 0 m 27.13424˚ -82.84089˚ 133 nm 168 nm 335° / 335° -
BOOGI FIX - 0 ft / 0 m 27.35599˚ -82.88068˚ 13 nm 182 nm 351° / 351° -
VPGPE FIX - 0 ft / 0 m 27.72500˚ -82.74444˚ 23 nm 205 nm 18° / 18° -
BIGOO FIX - 0 ft / 0 m 27.80260˚ -82.68991˚ 5 nm 210 nm 32° / 32° -
O KSPG APT - 0 ft / 0 m 27.76505˚ -82.62674˚ 4 nm 215 nm 124° / 124° Albert Whitted

Altitude Profile

Advertisement - Login to hide

Weather


0- 5 10 15 20 25 30 35+ Temperature / ° C

Clouds and Precipitation
Forecast for 2017-12-11 12:00 UTC. Updated an hour ago

Ground ~20,000 ft ~40,000 ft Winds

KEYW

Details ICAO KEYW (EYW)
Name Key West Intl
Region United States
Timezone America/New_York (UTC-5.0)
Stats Elevation 2 ft / 1 m (AMSL)
Location 24.556124° -81.759546°
Runways 1
Magnetic Variation 5.544° W

METAR

KEYW 110753Z AUTO 36008KT 10SM CLR 15/08 A3025 RMK AO2 SLP243 T01500078

Decode

TAF

KEYW 110527Z 1106/1206 34009KT P6SM SKC FM110700 36012KT P6SM SKC

Decode

Departure Runways

ID Width Length Bearing (true) Bearing (mag) Surface Threshold Offset Overrun Length
09 100 ft / 30 m 4,794 ft / 1,461 m 89.38° 94.92° Asphalt 151 ft / 46 m 0 ft / 0 m
27 100 ft / 30 m 4,794 ft / 1,461 m 269.39° 274.93° Asphalt 151 ft / 46 m 0 ft / 0 m

KSPG

Details ICAO KSPG (SPG)
Name Albert Whitted
Region United States
Timezone America/New_York (UTC-5.0)
Stats Elevation 7 ft / 2 m (AMSL)
Location 27.765051° -82.626745°
Runways 2
Magnetic Variation 5.465° W

METAR

KSPG 110753Z AUTO 00000KT 10SM CLR 11/07 A3027 RMK AO2 SLP251 T01060072

Decode

TAF

Not found

Destination Runways

ID Width Length Bearing (true) Bearing (mag) Surface Threshold Offset Overrun Length
06 75 ft / 23 m 3,676 ft / 1,120 m 61.97° 67.43° Asphalt 558 ft / 170 m 0 ft / 0 m
18 150 ft / 46 m 2,875 ft / 876 m 179.64° 185.10° Asphalt 0 ft / 0 m 0 ft / 0 m
24 75 ft / 23 m 3,676 ft / 1,120 m 241.98° 247.44° Asphalt 263 ft / 80 m 0 ft / 0 m
36 150 ft / 46 m 2,875 ft / 876 m 359.64° 5.10° Asphalt 0 ft / 0 m 0 ft / 0 m

Popular Alternatives